sensor_id;sensor_type;location;lat;lon;timestamp;temperature;humidity
16823;DHT22;8528;49.976;11.858;2023-10-08T00:02:25;13.40;99.90
16823;DHT22;8528;49.976;11.858;2023-10-08T00:04:55;13.40;99.90
16823;DHT22;8528;49.976;11.858;2023-10-08T00:07:22;13.50;99.90
16823;DHT22;8528;49.976;11.858;2023-10-08T00:09:51;13.50;99.90
16823;DHT22;8528;49.976;11.858;2023-10-08T00:12:21;13.50;99.90
16823;DHT22;8528;49.976;11.858;2023-10-08T00:14:48;13.50;99.90
16823;DHT22;8528;49.976;11.858;2023-10-08T00:17:16;13.50;99.90
16823;DHT22;8528;49.976;11.858;2023-10-08T00:19:47;13.60;99.90
16823;DHT22;8528;49.976;11.858;2023-10-08T00:22:19;13.60;99.90
16823;DHT22;8528;49.976;11.858;2023-10-08T00:24:47;13.60;99.90
16823;DHT22;8528;49.976;11.858;2023-10-08T00:27:16;13.60;99.90
16823;DHT22;8528;49.976;11.858;2023-10-08T00:29:44;13.60;99.90
16823;DHT22;8528;49.976;11.858;2023-10-08T00:32:12;13.60;99.90
16823;DHT22;8528;49.976;11.858;2023-10-08T00:34:41;13.60;99.90
16823;DHT22;8528;49.976;11.858;2023-10-08T00:37:09;13.60;99.90
16823;DHT22;8528;49.976;11.858;2023-10-08T00:39:38;13.60;99.90
16823;DHT22;8528;49.976;11.858;2023-10-08T00:42:07;13.60;99.90
16823;DHT22;8528;49.976;11.858;2023-10-08T00:44:35;13.60;99.90
16823;DHT22;8528;49.976;11.858;2023-10-08T00:47:16;13.60;99.90
16823;DHT22;8528;49.976;11.858;2023-10-08T00:49:43;13.70;99.90
16823;DHT22;8528;49.976;11.858;2023-10-08T00:52:12;13.70;99.90
16823;DHT22;8528;49.976;11.858;2023-10-08T00:54:40;13.70;99.90
16823;DHT22;8528;49.976;11.858;2023-10-08T00:57:35;13.60;99.90
16823;DHT22;8528;49.976;11.858;2023-10-08T01:00:04;13.60;99.90
16823;DHT22;8528;49.976;11.858;2023-10-08T01:02:42;13.70;99.90
16823;DHT22;8528;49.976;11.858;2023-10-08T01:05:16;13.70;99.90
16823;DHT22;8528;49.976;11.858;2023-10-08T01:07:54;13.70;99.90
16823;DHT22;8528;49.976;11.858;2023-10-08T01:10:46;13.60;99.90
16823;DHT22;8528;49.976;11.858;2023-10-08T01:13:14;13.60;99.90
16823;DHT22;8528;49.976;11.858;2023-10-08T01:15:46;13.60;99.90
16823;DHT22;8528;49.976;11.858;2023-10-08T01:18:16;13.60;99.90
16823;DHT22;8528;49.976;11.858;2023-10-08T01:20:56;13.50;99.90
16823;DHT22;8528;49.976;11.858;2023-10-08T01:23:23;13.50;99.90
16823;DHT22;8528;49.976;11.858;2023-10-08T01:25:54;13.50;99.90
16823;DHT22;8528;49.976;11.858;2023-10-08T01:28:50;13.40;99.90
16823;DHT22;8528;49.976;11.858;2023-10-08T01:31:18;13.40;99.90
16823;DHT22;8528;49.976;11.858;2023-10-08T01:33:45;13.40;99.90
16823;DHT22;8528;49.976;11.858;2023-10-08T01:36:20;13.40;99.90
16823;DHT22;8528;49.976;11.858;2023-10-08T01:38:49;13.40;99.90
16823;DHT22;8528;49.976;11.858;2023-10-08T01:41:17;13.40;99.90
16823;DHT22;8528;49.976;11.858;2023-10-08T01:43:48;13.30;99.90
16823;DHT22;8528;49.976;11.858;2023-10-08T01:46:19;13.30;99.90
16823;DHT22;8528;49.976;11.858;2023-10-08T01:48:49;13.20;99.90
16823;DHT22;8528;49.976;11.858;2023-10-08T01:51:20;13.20;99.90
16823;DHT22;8528;49.976;11.858;2023-10-08T01:53:55;13.20;99.90
16823;DHT22;8528;49.976;11.858;2023-10-08T01:56:22;13.10;99.90
16823;DHT22;8528;49.976;11.858;2023-10-08T01:58:49;13.10;99.90
16823;DHT22;8528;49.976;11.858;2023-10-08T02:01:22;13.00;99.90
16823;DHT22;8528;49.976;11.858;2023-10-08T02:03:49;12.90;99.90
16823;DHT22;8528;49.976;11.858;2023-10-08T02:06:16;12.80;99.90
16823;DHT22;8528;49.976;11.858;2023-10-08T02:08:43;12.80;99.90
16823;DHT22;8528;49.976;11.858;2023-10-08T02:11:10;12.80;99.90
16823;DHT22;8528;49.976;11.858;2023-10-08T02:13:37;12.80;99.90
16823;DHT22;8528;49.976;11.858;2023-10-08T02:16:04;12.70;99.90
16823;DHT22;8528;49.976;11.858;2023-10-08T02:18:31;12.70;99.90
16823;DHT22;8528;49.976;11.858;2023-10-08T02:20:59;12.70;99.90
16823;DHT22;8528;49.976;11.858;2023-10-08T02:23:26;12.70;99.90
16823;DHT22;8528;49.976;11.858;2023-10-08T02:25:54;12.70;99.90
16823;DHT22;8528;49.976;11.858;2023-10-08T02:28:21;12.80;99.90
16823;DHT22;8528;49.976;11.858;2023-10-08T02:30:50;12.80;99.90
16823;DHT22;8528;49.976;11.858;2023-10-08T02:33:17;12.80;99.90
16823;DHT22;8528;49.976;11.858;2023-10-08T02:35:46;12.70;99.90
16823;DHT22;8528;49.976;11.858;2023-10-08T02:38:16;12.70;99.90
16823;DHT22;8528;49.976;11.858;2023-10-08T02:40:44;12.70;99.90
16823;DHT22;8528;49.976;11.858;2023-10-08T02:43:15;12.70;99.90
16823;DHT22;8528;49.976;11.858;2023-10-08T02:45:44;12.60;99.90
16823;DHT22;8528;49.976;11.858;2023-10-08T02:48:17;12.60;99.90
16823;DHT22;8528;49.976;11.858;2023-10-08T02:50:45;12.60;99.90
16823;DHT22;8528;49.976;11.858;2023-10-08T02:53:12;12.60;99.90
16823;DHT22;8528;49.976;11.858;2023-10-08T02:55:45;12.60;99.90
16823;DHT22;8528;49.976;11.858;2023-10-08T02:58:14;12.50;99.90
16823;DHT22;8528;49.976;11.858;2023-10-08T03:00:42;12.50;99.90
16823;DHT22;8528;49.976;11.858;2023-10-08T03:03:10;12.50;99.90
16823;DHT22;8528;49.976;11.858;2023-10-08T03:05:48;12.50;99.90
16823;DHT22;8528;49.976;11.858;2023-10-08T03:08:17;12.50;99.90
16823;DHT22;8528;49.976;11.858;2023-10-08T03:10:49;12.50;99.90
16823;DHT22;8528;49.976;11.858;2023-10-08T03:13:17;12.50;99.90
16823;DHT22;8528;49.976;11.858;2023-10-08T03:15:46;12.50;99.90
16823;DHT22;8528;49.976;11.858;2023-10-08T03:18:24;12.50;99.90
16823;DHT22;8528;49.976;11.858;2023-10-08T03:20:51;12.60;99.90
16823;DHT22;8528;49.976;11.858;2023-10-08T03:23:18;12.70;99.90
16823;DHT22;8528;49.976;11.858;2023-10-08T03:26:01;12.70;99.90
16823;DHT22;8528;49.976;11.858;2023-10-08T03:29:02;12.70;99.90
16823;DHT22;8528;49.976;11.858;2023-10-08T03:31:34;12.70;99.90
16823;DHT22;8528;49.976;11.858;2023-10-08T03:34:17;12.60;99.90
16823;DHT22;8528;49.976;11.858;2023-10-08T03:36:53;12.60;99.90
16823;DHT22;8528;49.976;11.858;2023-10-08T03:39:26;12.60;99.90
16823;DHT22;8528;49.976;11.858;2023-10-08T03:42:13;12.50;99.90
16823;DHT22;8528;49.976;11.858;2023-10-08T03:44:46;12.50;99.90
16823;DHT22;8528;49.976;11.858;2023-10-08T03:47:18;12.50;99.90
16823;DHT22;8528;49.976;11.858;2023-10-08T03:49:46;12.60;99.90
16823;DHT22;8528;49.976;11.858;2023-10-08T03:52:13;12.70;99.90
16823;DHT22;8528;49.976;11.858;2023-10-08T03:54:39;12.70;99.90
16823;DHT22;8528;49.976;11.858;2023-10-08T03:57:15;12.70;99.90
16823;DHT22;8528;49.976;11.858;2023-10-08T03:59:52;12.70;99.90
16823;DHT22;8528;49.976;11.858;2023-10-08T04:02:25;12.80;99.90
16823;DHT22;8528;49.976;11.858;2023-10-08T04:05:08;12.80;99.90
16823;DHT22;8528;49.976;11.858;2023-10-08T04:07:54;12.90;99.90
16823;DHT22;8528;49.976;11.858;2023-10-08T04:10:28;12.90;99.90
16823;DHT22;8528;49.976;11.858;2023-10-08T04:13:16;13.00;99.90
16823;DHT22;8528;49.976;11.858;2023-10-08T04:15:43;13.00;99.90
16823;DHT22;8528;49.976;11.858;2023-10-08T04:18:11;13.00;99.90
16823;DHT22;8528;49.976;11.858;2023-10-08T04:20:39;13.00;99.90
16823;DHT22;8528;49.976;11.858;2023-10-08T04:23:08;13.00;99.90
16823;DHT22;8528;49.976;11.858;2023-10-08T04:25:48;12.90;99.90
16823;DHT22;8528;49.976;11.858;2023-10-08T04:28:22;12.90;99.90
16823;DHT22;8528;49.976;11.858;2023-10-08T04:30:48;12.90;99.90
16823;DHT22;8528;49.976;11.858;2023-10-08T04:33:17;12.90;99.90
16823;DHT22;8528;49.976;11.858;2023-10-08T04:35:46;12.90;99.90
16823;DHT22;8528;49.976;11.858;2023-10-08T04:38:21;13.00;99.90
16823;DHT22;8528;49.976;11.858;2023-10-08T04:40:49;13.00;99.90
16823;DHT22;8528;49.976;11.858;2023-10-08T04:43:22;13.00;99.90
16823;DHT22;8528;49.976;11.858;2023-10-08T04:45:53;13.00;99.90
16823;DHT22;8528;49.976;11.858;2023-10-08T04:48:19;12.90;99.90
16823;DHT22;8528;49.976;11.858;2023-10-08T04:50:48;12.90;99.90
16823;DHT22;8528;49.976;11.858;2023-10-08T04:53:30;12.90;99.90
16823;DHT22;8528;49.976;11.858;2023-10-08T04:56:06;12.80;99.90
16823;DHT22;8528;49.976;11.858;2023-10-08T04:58:46;12.70;99.90
16823;DHT22;8528;49.976;11.858;2023-10-08T05:01:15;12.70;99.90
16823;DHT22;8528;49.976;11.858;2023-10-08T05:03:50;12.70;99.90
16823;DHT22;8528;49.976;11.858;2023-10-08T05:06:28;12.70;99.90
16823;DHT22;8528;49.976;11.858;2023-10-08T05:11:39;12.70;99.90
16823;DHT22;8528;49.976;11.858;2023-10-08T05:14:22;12.70;99.90
16823;DHT22;8528;49.976;11.858;2023-10-08T05:17:16;12.80;99.90
16823;DHT22;8528;49.976;11.858;2023-10-08T05:19:46;12.90;99.90
16823;DHT22;8528;49.976;11.858;2023-10-08T05:22:33;12.80;99.90
16823;DHT22;8528;49.976;11.858;2023-10-08T05:25:02;12.90;99.90
16823;DHT22;8528;49.976;11.858;2023-10-08T05:27:53;12.90;99.90
16823;DHT22;8528;49.976;11.858;2023-10-08T05:30:25;12.90;99.90
16823;DHT22;8528;49.976;11.858;2023-10-08T05:32:56;12.90;99.90
16823;DHT22;8528;49.976;11.858;2023-10-08T05:35:36;13.00;99.90
16823;DHT22;8528;49.976;11.858;2023-10-08T05:38:23;13.00;99.90
16823;DHT22;8528;49.976;11.858;2023-10-08T05:40:51;13.00;99.90
16823;DHT22;8528;49.976;11.858;2023-10-08T05:43:31;13.00;99.90
16823;DHT22;8528;49.976;11.858;2023-10-08T05:46:08;13.00;99.90
16823;DHT22;8528;49.976;11.858;2023-10-08T05:48:49;13.00;99.90
16823;DHT22;8528;49.976;11.858;2023-10-08T05:51:36;12.90;99.90
16823;DHT22;8528;49.976;11.858;2023-10-08T05:54:21;13.00;99.90
16823;DHT22;8528;49.976;11.858;2023-10-08T05:56:54;13.00;99.90
16823;DHT22;8528;49.976;11.858;2023-10-08T05:59:41;13.00;99.90
16823;DHT22;8528;49.976;11.858;2023-10-08T06:02:25;13.00;99.90
16823;DHT22;8528;49.976;11.858;2023-10-08T06:04:57;13.10;99.90
16823;DHT22;8528;49.976;11.858;2023-10-08T06:10:29;13.10;99.90
16823;DHT22;8528;49.976;11.858;2023-10-08T06:13:00;13.10;99.90
16823;DHT22;8528;49.976;11.858;2023-10-08T06:15:51;13.10;99.90
16823;DHT22;8528;49.976;11.858;2023-10-08T06:18:33;13.10;99.90
16823;DHT22;8528;49.976;11.858;2023-10-08T06:21:04;13.20;99.90
16823;DHT22;8528;49.976;11.858;2023-10-08T06:23:40;13.20;99.90
16823;DHT22;8528;49.976;11.858;2023-10-08T06:26:09;13.20;99.90
16823;DHT22;8528;49.976;11.858;2023-10-08T06:28:40;13.20;99.90
16823;DHT22;8528;49.976;11.858;2023-10-08T06:31:08;13.30;99.90
16823;DHT22;8528;49.976;11.858;2023-10-08T06:33:39;13.30;99.90
16823;DHT22;8528;49.976;11.858;2023-10-08T06:36:09;13.40;99.90
16823;DHT22;8528;49.976;11.858;2023-10-08T06:38:40;13.40;99.90
16823;DHT22;8528;49.976;11.858;2023-10-08T06:41:10;13.50;99.90
16823;DHT22;8528;49.976;11.858;2023-10-08T06:43:48;13.50;99.90
16823;DHT22;8528;49.976;11.858;2023-10-08T06:46:41;13.60;99.90
16823;DHT22;8528;49.976;11.858;2023-10-08T06:49:09;13.60;99.90
16823;DHT22;8528;49.976;11.858;2023-10-08T06:51:41;13.70;99.90
16823;DHT22;8528;49.976;11.858;2023-10-08T06:54:11;13.80;99.90
16823;DHT22;8528;49.976;11.858;2023-10-08T06:56:41;13.70;99.90
16823;DHT22;8528;49.976;11.858;2023-10-08T06:59:15;13.80;99.90
16823;DHT22;8528;49.976;11.858;2023-10-08T07:01:46;13.90;99.90
16823;DHT22;8528;49.976;11.858;2023-10-08T07:04:13;13.90;99.90
16823;DHT22;8528;49.976;11.858;2023-10-08T07:06:41;14.00;99.90
16823;DHT22;8528;49.976;11.858;2023-10-08T07:09:11;14.10;99.90
16823;DHT22;8528;49.976;11.858;2023-10-08T07:11:57;14.10;99.90
16823;DHT22;8528;49.976;11.858;2023-10-08T07:14:27;14.30;99.90
16823;DHT22;8528;49.976;11.858;2023-10-08T07:16:56;14.30;99.90
16823;DHT22;8528;49.976;11.858;2023-10-08T07:19:28;14.40;99.90
16823;DHT22;8528;49.976;11.858;2023-10-08T07:22:07;14.40;99.90
16823;DHT22;8528;49.976;11.858;2023-10-08T07:24:44;14.50;99.90
16823;DHT22;8528;49.976;11.858;2023-10-08T07:27:18;14.60;99.90
16823;DHT22;8528;49.976;11.858;2023-10-08T07:29:50;14.60;99.90
16823;DHT22;8528;49.976;11.858;2023-10-08T07:32:23;14.70;99.90
16823;DHT22;8528;49.976;11.858;2023-10-08T07:34:53;14.90;99.90
16823;DHT22;8528;49.976;11.858;2023-10-08T07:37:24;15.00;99.90
16823;DHT22;8528;49.976;11.858;2023-10-08T07:39:53;15.10;99.90
16823;DHT22;8528;49.976;11.858;2023-10-08T07:42:21;15.00;99.90
16823;DHT22;8528;49.976;11.858;2023-10-08T07:44:48;14.90;99.90
16823;DHT22;8528;49.976;11.858;2023-10-08T07:47:17;14.90;99.90
16823;DHT22;8528;49.976;11.858;2023-10-08T07:49:48;14.80;99.90
16823;DHT22;8528;49.976;11.858;2023-10-08T07:52:15;14.80;99.90
16823;DHT22;8528;49.976;11.858;2023-10-08T07:54:43;14.80;99.90
16823;DHT22;8528;49.976;11.858;2023-10-08T07:57:10;14.70;99.90
16823;DHT22;8528;49.976;11.858;2023-10-08T07:59:41;14.70;99.90
16823;DHT22;8528;49.976;11.858;2023-10-08T08:02:09;14.60;99.90
16823;DHT22;8528;49.976;11.858;2023-10-08T08:04:40;14.60;99.90
16823;DHT22;8528;49.976;11.858;2023-10-08T08:07:07;14.60;99.90
16823;DHT22;8528;49.976;11.858;2023-10-08T08:09:34;14.60;99.90
16823;DHT22;8528;49.976;11.858;2023-10-08T08:12:14;14.50;99.90
16823;DHT22;8528;49.976;11.858;2023-10-08T08:14:40;14.60;99.90
16823;DHT22;8528;49.976;11.858;2023-10-08T08:17:08;14.90;99.90
16823;DHT22;8528;49.976;11.858;2023-10-08T08:19:48;15.10;99.90
16823;DHT22;8528;49.976;11.858;2023-10-08T08:22:16;15.20;99.90
16823;DHT22;8528;49.976;11.858;2023-10-08T08:24:51;15.30;99.90
16823;DHT22;8528;49.976;11.858;2023-10-08T08:27:25;15.30;99.90
16823;DHT22;8528;49.976;11.858;2023-10-08T08:30:01;15.40;99.90
16823;DHT22;8528;49.976;11.858;2023-10-08T08:32:42;15.40;99.90
16823;DHT22;8528;49.976;11.858;2023-10-08T08:35:12;15.70;99.90
16823;DHT22;8528;49.976;11.858;2023-10-08T08:37:43;15.80;99.90
16823;DHT22;8528;49.976;11.858;2023-10-08T08:40:13;15.80;99.90
16823;DHT22;8528;49.976;11.858;2023-10-08T08:42:51;15.90;99.90
16823;DHT22;8528;49.976;11.858;2023-10-08T08:45:25;15.90;99.90
16823;DHT22;8528;49.976;11.858;2023-10-08T08:47:53;15.90;99.90
16823;DHT22;8528;49.976;11.858;2023-10-08T08:50:21;15.90;99.90
16823;DHT22;8528;49.976;11.858;2023-10-08T08:52:49;16.00;99.90
16823;DHT22;8528;49.976;11.858;2023-10-08T08:55:15;16.10;99.90
16823;DHT22;8528;49.976;11.858;2023-10-08T08:57:48;16.00;99.90
16823;DHT22;8528;49.976;11.858;2023-10-08T09:00:18;15.70;99.90
16823;DHT22;8528;49.976;11.858;2023-10-08T09:02:46;15.50;99.90
16823;DHT22;8528;49.976;11.858;2023-10-08T09:05:15;15.40;99.90
16823;DHT22;8528;49.976;11.858;2023-10-08T09:07:57;15.20;99.90
16823;DHT22;8528;49.976;11.858;2023-10-08T09:10:26;15.10;99.90
16823;DHT22;8528;49.976;11.858;2023-10-08T09:12:57;14.90;99.90
16823;DHT22;8528;49.976;11.858;2023-10-08T09:15:27;14.80;99.90
16823;DHT22;8528;49.976;11.858;2023-10-08T09:17:55;14.70;99.90
16823;DHT22;8528;49.976;11.858;2023-10-08T09:20:23;14.60;99.90
16823;DHT22;8528;49.976;11.858;2023-10-08T09:23:10;14.50;99.90
16823;DHT22;8528;49.976;11.858;2023-10-08T09:25:42;14.20;99.90
16823;DHT22;8528;49.976;11.858;2023-10-08T09:28:09;13.90;99.90
16823;DHT22;8528;49.976;11.858;2023-10-08T09:30:40;13.60;99.90
16823;DHT22;8528;49.976;11.858;2023-10-08T09:33:10;13.50;99.90
16823;DHT22;8528;49.976;11.858;2023-10-08T09:35:37;13.30;99.90
16823;DHT22;8528;49.976;11.858;2023-10-08T09:38:07;13.20;99.90
16823;DHT22;8528;49.976;11.858;2023-10-08T09:40:40;13.10;99.90
16823;DHT22;8528;49.976;11.858;2023-10-08T09:43:12;13.10;99.90
16823;DHT22;8528;49.976;11.858;2023-10-08T09:45:43;12.90;99.90
16823;DHT22;8528;49.976;11.858;2023-10-08T09:48:11;12.90;99.90
16823;DHT22;8528;49.976;11.858;2023-10-08T09:50:42;12.90;99.90
16823;DHT22;8528;49.976;11.858;2023-10-08T09:53:11;12.80;99.90
16823;DHT22;8528;49.976;11.858;2023-10-08T09:55:54;12.80;99.90
16823;DHT22;8528;49.976;11.858;2023-10-08T09:58:27;12.80;99.90
16823;DHT22;8528;49.976;11.858;2023-10-08T10:00:57;12.70;99.90
16823;DHT22;8528;49.976;11.858;2023-10-08T10:03:25;12.70;99.90
16823;DHT22;8528;49.976;11.858;2023-10-08T10:05:54;12.60;99.90
16823;DHT22;8528;49.976;11.858;2023-10-08T10:08:27;12.60;99.90
16823;DHT22;8528;49.976;11.858;2023-10-08T10:11:00;12.60;99.90
16823;DHT22;8528;49.976;11.858;2023-10-08T10:13:28;12.60;99.90
16823;DHT22;8528;49.976;11.858;2023-10-08T10:15:57;12.60;99.90
16823;DHT22;8528;49.976;11.858;2023-10-08T10:20:57;12.60;99.90
16823;DHT22;8528;49.976;11.858;2023-10-08T10:23:38;12.50;99.90
16823;DHT22;8528;49.976;11.858;2023-10-08T10:26:22;12.50;99.90
16823;DHT22;8528;49.976;11.858;2023-10-08T10:31:38;12.60;99.90
16823;DHT22;8528;49.976;11.858;2023-10-08T10:34:06;12.60;99.90
16823;DHT22;8528;49.976;11.858;2023-10-08T10:36:35;12.60;99.90
16823;DHT22;8528;49.976;11.858;2023-10-08T10:39:03;12.70;99.90
16823;DHT22;8528;49.976;11.858;2023-10-08T10:41:57;12.70;99.90
16823;DHT22;8528;49.976;11.858;2023-10-08T10:44:24;12.70;99.90
16823;DHT22;8528;49.976;11.858;2023-10-08T10:46:52;12.60;99.90
16823;DHT22;8528;49.976;11.858;2023-10-08T10:49:39;12.60;99.90
16823;DHT22;8528;49.976;11.858;2023-10-08T10:52:24;12.60;99.90
16823;DHT22;8528;49.976;11.858;2023-10-08T10:55:20;12.70;99.90
16823;DHT22;8528;49.976;11.858;2023-10-08T10:57:54;12.70;99.90
16823;DHT22;8528;49.976;11.858;2023-10-08T11:00:42;12.60;99.90
16823;DHT22;8528;49.976;11.858;2023-10-08T11:03:09;12.60;99.90
16823;DHT22;8528;49.976;11.858;2023-10-08T11:05:56;12.70;99.90
16823;DHT22;8528;49.976;11.858;2023-10-08T11:08:27;12.70;99.90
16823;DHT22;8528;49.976;11.858;2023-10-08T11:11:02;12.70;99.90
16823;DHT22;8528;49.976;11.858;2023-10-08T11:13:35;12.70;99.90
16823;DHT22;8528;49.976;11.858;2023-10-08T11:16:08;12.80;99.90
16823;DHT22;8528;49.976;11.858;2023-10-08T11:18:45;12.90;99.90
16823;DHT22;8528;49.976;11.858;2023-10-08T11:21:17;12.80;99.90
16823;DHT22;8528;49.976;11.858;2023-10-08T11:23:52;12.80;99.90
16823;DHT22;8528;49.976;11.858;2023-10-08T11:26:36;12.70;99.90
16823;DHT22;8528;49.976;11.858;2023-10-08T11:29:07;12.70;99.90
16823;DHT22;8528;49.976;11.858;2023-10-08T11:31:41;12.70;99.90
16823;DHT22;8528;49.976;11.858;2023-10-08T11:34:11;12.60;99.90
16823;DHT22;8528;49.976;11.858;2023-10-08T11:36:40;12.60;99.90
16823;DHT22;8528;49.976;11.858;2023-10-08T11:39:20;12.50;99.90
16823;DHT22;8528;49.976;11.858;2023-10-08T11:42:00;12.50;99.90
16823;DHT22;8528;49.976;11.858;2023-10-08T11:44:49;12.60;99.90
16823;DHT22;8528;49.976;11.858;2023-10-08T11:47:19;12.60;99.90
16823;DHT22;8528;49.976;11.858;2023-10-08T11:49:49;12.60;99.90
16823;DHT22;8528;49.976;11.858;2023-10-08T11:52:36;12.70;99.90
16823;DHT22;8528;49.976;11.858;2023-10-08T11:55:09;12.70;99.90
16823;DHT22;8528;49.976;11.858;2023-10-08T11:57:37;12.70;99.90
16823;DHT22;8528;49.976;11.858;2023-10-08T12:00:13;12.80;99.90
16823;DHT22;8528;49.976;11.858;2023-10-08T12:02:49;12.90;99.90
16823;DHT22;8528;49.976;11.858;2023-10-08T12:05:16;12.90;99.90
16823;DHT22;8528;49.976;11.858;2023-10-08T12:07:47;13.00;99.90
16823;DHT22;8528;49.976;11.858;2023-10-08T12:10:14;13.00;99.90
16823;DHT22;8528;49.976;11.858;2023-10-08T12:12:43;12.80;99.90
16823;DHT22;8528;49.976;11.858;2023-10-08T12:15:12;12.60;99.90
16823;DHT22;8528;49.976;11.858;2023-10-08T12:17:50;12.50;99.90
16823;DHT22;8528;49.976;11.858;2023-10-08T12:20:36;12.60;99.90
16823;DHT22;8528;49.976;11.858;2023-10-08T12:23:05;12.70;99.90
16823;DHT22;8528;49.976;11.858;2023-10-08T12:25:33;12.60;99.90
16823;DHT22;8528;49.976;11.858;2023-10-08T12:28:00;12.60;99.90
16823;DHT22;8528;49.976;11.858;2023-10-08T12:30:31;12.50;99.90
16823;DHT22;8528;49.976;11.858;2023-10-08T12:32:59;12.60;99.90
16823;DHT22;8528;49.976;11.858;2023-10-08T12:35:28;12.70;99.90
16823;DHT22;8528;49.976;11.858;2023-10-08T12:37:56;12.60;99.90
16823;DHT22;8528;49.976;11.858;2023-10-08T12:40:24;12.70;99.90
16823;DHT22;8528;49.976;11.858;2023-10-08T12:42:53;12.70;99.90
16823;DHT22;8528;49.976;11.858;2023-10-08T12:45:21;12.70;99.90
16823;DHT22;8528;49.976;11.858;2023-10-08T12:47:49;12.70;99.90
16823;DHT22;8528;49.976;11.858;2023-10-08T12:50:17;12.60;99.90
16823;DHT22;8528;49.976;11.858;2023-10-08T12:52:50;12.50;99.90
16823;DHT22;8528;49.976;11.858;2023-10-08T12:55:24;12.50;99.90
16823;DHT22;8528;49.976;11.858;2023-10-08T12:57:55;12.50;99.90
16823;DHT22;8528;49.976;11.858;2023-10-08T13:00:33;12.40;99.90
16823;DHT22;8528;49.976;11.858;2023-10-08T13:02:59;12.40;99.90
16823;DHT22;8528;49.976;11.858;2023-10-08T13:05:32;12.40;99.90
16823;DHT22;8528;49.976;11.858;2023-10-08T13:08:01;12.30;99.90
16823;DHT22;8528;49.976;11.858;2023-10-08T13:10:36;12.50;99.90
16823;DHT22;8528;49.976;11.858;2023-10-08T13:13:08;12.50;99.90
16823;DHT22;8528;49.976;11.858;2023-10-08T13:15:38;12.60;99.90
16823;DHT22;8528;49.976;11.858;2023-10-08T13:18:05;12.60;99.90
16823;DHT22;8528;49.976;11.858;2023-10-08T13:20:33;12.50;99.90
16823;DHT22;8528;49.976;11.858;2023-10-08T13:23:01;12.40;99.90
16823;DHT22;8528;49.976;11.858;2023-10-08T13:25:28;12.30;99.90
16823;DHT22;8528;49.976;11.858;2023-10-08T13:27:57;12.10;99.90
16823;DHT22;8528;49.976;11.858;2023-10-08T13:30:24;12.10;99.90
16823;DHT22;8528;49.976;11.858;2023-10-08T13:32:51;12.10;99.90
16823;DHT22;8528;49.976;11.858;2023-10-08T13:35:18;12.10;99.90
16823;DHT22;8528;49.976;11.858;2023-10-08T13:37:45;12.20;99.90
16823;DHT22;8528;49.976;11.858;2023-10-08T13:40:14;12.20;99.90
16823;DHT22;8528;49.976;11.858;2023-10-08T13:42:43;12.30;99.90
16823;DHT22;8528;49.976;11.858;2023-10-08T13:45:09;12.30;99.90
16823;DHT22;8528;49.976;11.858;2023-10-08T13:47:36;12.20;99.90
16823;DHT22;8528;49.976;11.858;2023-10-08T13:50:07;12.20;99.90
16823;DHT22;8528;49.976;11.858;2023-10-08T13:52:37;12.20;99.90
16823;DHT22;8528;49.976;11.858;2023-10-08T13:55:06;12.10;99.90
16823;DHT22;8528;49.976;11.858;2023-10-08T13:57:34;12.20;99.90
16823;DHT22;8528;49.976;11.858;2023-10-08T14:00:01;12.30;99.90
16823;DHT22;8528;49.976;11.858;2023-10-08T14:02:28;12.40;99.90
16823;DHT22;8528;49.976;11.858;2023-10-08T14:04:57;12.50;99.90
16823;DHT22;8528;49.976;11.858;2023-10-08T14:07:45;12.60;99.90
16823;DHT22;8528;49.976;11.858;2023-10-08T14:10:11;12.80;99.90
16823;DHT22;8528;49.976;11.858;2023-10-08T14:12:45;13.00;99.90
16823;DHT22;8528;49.976;11.858;2023-10-08T14:15:16;13.20;99.90
16823;DHT22;8528;49.976;11.858;2023-10-08T14:17:44;13.20;99.90
16823;DHT22;8528;49.976;11.858;2023-10-08T14:20:15;13.20;99.90
16823;DHT22;8528;49.976;11.858;2023-10-08T14:22:48;13.10;99.90
16823;DHT22;8528;49.976;11.858;2023-10-08T14:25:27;13.10;99.90
16823;DHT22;8528;49.976;11.858;2023-10-08T14:27:54;13.10;99.90
16823;DHT22;8528;49.976;11.858;2023-10-08T14:30:31;13.00;99.90
16823;DHT22;8528;49.976;11.858;2023-10-08T14:33:00;13.00;99.90
16823;DHT22;8528;49.976;11.858;2023-10-08T14:35:30;13.00;99.90
16823;DHT22;8528;49.976;11.858;2023-10-08T14:38:16;13.00;99.90
16823;DHT22;8528;49.976;11.858;2023-10-08T14:41:01;13.00;99.90
16823;DHT22;8528;49.976;11.858;2023-10-08T14:43:47;12.80;99.90
16823;DHT22;8528;49.976;11.858;2023-10-08T14:46:14;12.60;99.90
16823;DHT22;8528;49.976;11.858;2023-10-08T14:48:42;12.50;99.90
16823;DHT22;8528;49.976;11.858;2023-10-08T14:51:09;12.40;99.90
16823;DHT22;8528;49.976;11.858;2023-10-08T14:53:43;12.30;99.90
16823;DHT22;8528;49.976;11.858;2023-10-08T14:56:09;12.20;99.90
16823;DHT22;8528;49.976;11.858;2023-10-08T14:58:36;12.30;99.90
16823;DHT22;8528;49.976;11.858;2023-10-08T15:01:03;12.40;99.90
16823;DHT22;8528;49.976;11.858;2023-10-08T15:03:30;12.50;99.90
16823;DHT22;8528;49.976;11.858;2023-10-08T15:05:58;12.40;99.90
16823;DHT22;8528;49.976;11.858;2023-10-08T15:08:25;12.30;99.90
16823;DHT22;8528;49.976;11.858;2023-10-08T15:10:53;12.30;99.90
16823;DHT22;8528;49.976;11.858;2023-10-08T15:13:20;12.30;99.90
16823;DHT22;8528;49.976;11.858;2023-10-08T15:15:47;12.40;99.90
16823;DHT22;8528;49.976;11.858;2023-10-08T15:18:15;12.50;99.90
16823;DHT22;8528;49.976;11.858;2023-10-08T15:20:45;12.40;99.90
16823;DHT22;8528;49.976;11.858;2023-10-08T15:23:13;12.30;99.90
16823;DHT22;8528;49.976;11.858;2023-10-08T15:25:40;12.30;99.90
16823;DHT22;8528;49.976;11.858;2023-10-08T15:28:07;12.40;99.90
16823;DHT22;8528;49.976;11.858;2023-10-08T15:30:34;12.50;99.90
16823;DHT22;8528;49.976;11.858;2023-10-08T15:33:02;12.60;99.90
16823;DHT22;8528;49.976;11.858;2023-10-08T15:35:29;12.70;99.90
16823;DHT22;8528;49.976;11.858;2023-10-08T15:37:56;12.70;99.90
16823;DHT22;8528;49.976;11.858;2023-10-08T15:40:23;12.70;99.90
16823;DHT22;8528;49.976;11.858;2023-10-08T15:42:52;12.70;99.90
16823;DHT22;8528;49.976;11.858;2023-10-08T15:45:21;12.70;99.90
16823;DHT22;8528;49.976;11.858;2023-10-08T15:47:49;12.70;99.90
16823;DHT22;8528;49.976;11.858;2023-10-08T15:50:17;12.70;99.90
16823;DHT22;8528;49.976;11.858;2023-10-08T15:52:48;12.70;99.90
16823;DHT22;8528;49.976;11.858;2023-10-08T15:55:17;12.70;99.90
16823;DHT22;8528;49.976;11.858;2023-10-08T15:57:45;12.70;99.90
16823;DHT22;8528;49.976;11.858;2023-10-08T16:00:12;12.70;99.90
16823;DHT22;8528;49.976;11.858;2023-10-08T16:02:42;12.70;99.90
16823;DHT22;8528;49.976;11.858;2023-10-08T16:05:11;12.70;99.90
16823;DHT22;8528;49.976;11.858;2023-10-08T16:07:38;12.70;99.90
16823;DHT22;8528;49.976;11.858;2023-10-08T16:10:05;12.60;99.90
16823;DHT22;8528;49.976;11.858;2023-10-08T16:12:32;12.60;99.90